Anamosa, Iowa
Current Conditions -  °F | °C
As of 7:55 PM on Monday 20 Oct 2014 (Local Time) from KMXO Reporting Station
Clear Clear  
Wind Chill: 52°   Ceiling: Unl
Heat Index: 52°   Visibility: 10mi
Dew Point: 43°   Wind: 0mph
Humidity: 71%   Direction: NA
Pressure: 29.99"   Gusts: NA
Location:  42.11°N, 91.28°W
Report Text: KMXO 210055Z AUTO 00000KT 10SM CLR 11/06 A2999 RMK AO2
Loading
Personal Weather Stations






























Interactive Weather Map
Tropical Storm Tracking
New forecast layout! Learn more

10-Day Weather Forecast

Advertisements
Track Severe Weather on mobile